sensor_id;sensor_type;location;lat;lon;timestamp;P1;durP1;ratioP1;P2;durP2;ratioP2
19919;SDS011;10122;50.074;19.920;2024-01-10T00:01:34;94.20;;;31.10;;
19919;SDS011;10122;50.074;19.920;2024-01-10T00:04:00;94.23;;;31.23;;
19919;SDS011;10122;50.074;19.920;2024-01-10T00:06:26;92.63;;;32.27;;
19919;SDS011;10122;50.074;19.920;2024-01-10T00:08:51;93.77;;;32.83;;
19919;SDS011;10122;50.074;19.920;2024-01-10T00:11:17;97.33;;;32.50;;
19919;SDS011;10122;50.074;19.920;2024-01-10T00:13:43;89.30;;;32.73;;
19919;SDS011;10122;50.074;19.920;2024-01-10T00:16:11;96.43;;;30.60;;
19919;SDS011;10122;50.074;19.920;2024-01-10T00:18:38;89.50;;;31.60;;
19919;SDS011;10122;50.074;19.920;2024-01-10T00:21:05;96.60;;;31.17;;
19919;SDS011;10122;50.074;19.920;2024-01-10T00:23:31;92.57;;;32.43;;
19919;SDS011;10122;50.074;19.920;2024-01-10T00:25:57;78.93;;;30.53;;
19919;SDS011;10122;50.074;19.920;2024-01-10T00:28:22;105.50;;;31.90;;
19919;SDS011;10122;50.074;19.920;2024-01-10T00:30:48;98.87;;;32.80;;
19919;SDS011;10122;50.074;19.920;2024-01-10T00:33:14;86.13;;;31.73;;
19919;SDS011;10122;50.074;19.920;2024-01-10T00:35:40;96.63;;;33.03;;
19919;SDS011;10122;50.074;19.920;2024-01-10T00:38:06;93.53;;;33.63;;
19919;SDS011;10122;50.074;19.920;2024-01-10T00:40:32;96.03;;;33.70;;
19919;SDS011;10122;50.074;19.920;2024-01-10T00:42:57;109.57;;;36.17;;
19919;SDS011;10122;50.074;19.920;2024-01-10T00:45:23;108.13;;;36.40;;
19919;SDS011;10122;50.074;19.920;2024-01-10T00:47:49;114.57;;;35.13;;
19919;SDS011;10122;50.074;19.920;2024-01-10T00:50:15;106.47;;;35.57;;
19919;SDS011;10122;50.074;19.920;2024-01-10T00:52:41;127.13;;;39.57;;
19919;SDS011;10122;50.074;19.920;2024-01-10T00:55:07;123.27;;;40.03;;
19919;SDS011;10122;50.074;19.920;2024-01-10T00:57:33;127.23;;;39.90;;
19919;SDS011;10122;50.074;19.920;2024-01-10T00:59:59;123.03;;;40.10;;
19919;SDS011;10122;50.074;19.920;2024-01-10T01:02:24;135.00;;;40.07;;
19919;SDS011;10122;50.074;19.920;2024-01-10T01:04:51;129.50;;;39.97;;
19919;SDS011;10122;50.074;19.920;2024-01-10T01:07:16;109.30;;;39.13;;
19919;SDS011;10122;50.074;19.920;2024-01-10T01:09:42;121.80;;;39.63;;
19919;SDS011;10122;50.074;19.920;2024-01-10T01:12:08;137.90;;;39.53;;
19919;SDS011;10122;50.074;19.920;2024-01-10T01:14:33;137.03;;;40.57;;
19919;SDS011;10122;50.074;19.920;2024-01-10T01:16:59;121.67;;;39.20;;
19919;SDS011;10122;50.074;19.920;2024-01-10T01:19:24;126.83;;;38.83;;
19919;SDS011;10122;50.074;19.920;2024-01-10T01:21:50;135.70;;;40.20;;
19919;SDS011;10122;50.074;19.920;2024-01-10T01:24:16;117.90;;;40.13;;
19919;SDS011;10122;50.074;19.920;2024-01-10T01:26:42;129.80;;;37.50;;
19919;SDS011;10122;50.074;19.920;2024-01-10T01:29:07;130.47;;;38.30;;
19919;SDS011;10122;50.074;19.920;2024-01-10T01:31:33;118.60;;;37.80;;
19919;SDS011;10122;50.074;19.920;2024-01-10T01:33:59;119.80;;;37.63;;
19919;SDS011;10122;50.074;19.920;2024-01-10T01:36:25;122.23;;;36.93;;
19919;SDS011;10122;50.074;19.920;2024-01-10T01:38:50;122.03;;;38.17;;
19919;SDS011;10122;50.074;19.920;2024-01-10T01:41:16;125.47;;;38.53;;
19919;SDS011;10122;50.074;19.920;2024-01-10T01:43:43;117.43;;;37.03;;
19919;SDS011;10122;50.074;19.920;2024-01-10T01:46:09;114.43;;;37.30;;
19919;SDS011;10122;50.074;19.920;2024-01-10T01:48:35;122.10;;;36.93;;
19919;SDS011;10122;50.074;19.920;2024-01-10T01:51:05;127.50;;;38.70;;
19919;SDS011;10122;50.074;19.920;2024-01-10T01:53:32;127.63;;;37.80;;
19919;SDS011;10122;50.074;19.920;2024-01-10T01:56:00;123.73;;;36.70;;
19919;SDS011;10122;50.074;19.920;2024-01-10T01:58:37;107.23;;;34.70;;
19919;SDS011;10122;50.074;19.920;2024-01-10T02:01:05;110.47;;;36.40;;
19919;SDS011;10122;50.074;19.920;2024-01-10T02:03:31;96.17;;;33.60;;
19919;SDS011;10122;50.074;19.920;2024-01-10T02:05:58;102.57;;;34.30;;
19919;SDS011;10122;50.074;19.920;2024-01-10T02:08:24;110.87;;;35.30;;
19919;SDS011;10122;50.074;19.920;2024-01-10T02:10:50;102.27;;;33.00;;
19919;SDS011;10122;50.074;19.920;2024-01-10T02:13:16;92.20;;;32.90;;
19919;SDS011;10122;50.074;19.920;2024-01-10T02:15:42;99.13;;;33.90;;
19919;SDS011;10122;50.074;19.920;2024-01-10T02:18:08;106.00;;;34.47;;
19919;SDS011;10122;50.074;19.920;2024-01-10T02:20:39;121.03;;;36.10;;
19919;SDS011;10122;50.074;19.920;2024-01-10T02:23:07;104.00;;;35.53;;
19919;SDS011;10122;50.074;19.920;2024-01-10T02:25:34;108.70;;;35.70;;
19919;SDS011;10122;50.074;19.920;2024-01-10T02:28:00;115.53;;;36.17;;
19919;SDS011;10122;50.074;19.920;2024-01-10T02:30:25;118.13;;;36.63;;
19919;SDS011;10122;50.074;19.920;2024-01-10T02:32:51;97.50;;;35.10;;
19919;SDS011;10122;50.074;19.920;2024-01-10T02:35:17;120.13;;;37.53;;
19919;SDS011;10122;50.074;19.920;2024-01-10T02:37:42;94.70;;;33.97;;
19919;SDS011;10122;50.074;19.920;2024-01-10T02:40:09;102.73;;;35.17;;
19919;SDS011;10122;50.074;19.920;2024-01-10T02:42:35;125.63;;;36.60;;
19919;SDS011;10122;50.074;19.920;2024-01-10T02:45:00;110.40;;;36.77;;
19919;SDS011;10122;50.074;19.920;2024-01-10T02:47:26;101.67;;;33.97;;
19919;SDS011;10122;50.074;19.920;2024-01-10T02:49:54;103.87;;;33.53;;
19919;SDS011;10122;50.074;19.920;2024-01-10T02:52:19;102.30;;;35.10;;
19919;SDS011;10122;50.074;19.920;2024-01-10T02:54:45;114.10;;;36.03;;
19919;SDS011;10122;50.074;19.920;2024-01-10T02:57:11;111.27;;;34.57;;
19919;SDS011;10122;50.074;19.920;2024-01-10T02:59:38;119.87;;;34.87;;
19919;SDS011;10122;50.074;19.920;2024-01-10T03:02:04;109.00;;;36.17;;
19919;SDS011;10122;50.074;19.920;2024-01-10T03:04:29;122.40;;;36.37;;
19919;SDS011;10122;50.074;19.920;2024-01-10T03:06:55;106.50;;;36.27;;
19919;SDS011;10122;50.074;19.920;2024-01-10T03:09:22;111.67;;;36.50;;
19919;SDS011;10122;50.074;19.920;2024-01-10T03:11:48;102.47;;;35.33;;
19919;SDS011;10122;50.074;19.920;2024-01-10T03:14:14;120.87;;;38.17;;
19919;SDS011;10122;50.074;19.920;2024-01-10T03:16:39;128.93;;;36.63;;
19919;SDS011;10122;50.074;19.920;2024-01-10T03:19:05;89.00;;;30.90;;
19919;SDS011;10122;50.074;19.920;2024-01-10T03:21:31;101.80;;;35.37;;
19919;SDS011;10122;50.074;19.920;2024-01-10T03:23:57;108.73;;;33.83;;
19919;SDS011;10122;50.074;19.920;2024-01-10T03:26:24;118.80;;;38.50;;
19919;SDS011;10122;50.074;19.920;2024-01-10T03:28:50;106.13;;;36.63;;
19919;SDS011;10122;50.074;19.920;2024-01-10T03:31:16;116.30;;;37.53;;
19919;SDS011;10122;50.074;19.920;2024-01-10T03:33:42;119.70;;;36.53;;
19919;SDS011;10122;50.074;19.920;2024-01-10T03:36:11;120.63;;;36.30;;
19919;SDS011;10122;50.074;19.920;2024-01-10T03:38:38;126.10;;;38.10;;
19919;SDS011;10122;50.074;19.920;2024-01-10T03:41:04;121.43;;;36.30;;
19919;SDS011;10122;50.074;19.920;2024-01-10T03:43:29;117.03;;;36.77;;
19919;SDS011;10122;50.074;19.920;2024-01-10T03:45:55;107.93;;;36.90;;
19919;SDS011;10122;50.074;19.920;2024-01-10T03:48:22;120.60;;;38.47;;
19919;SDS011;10122;50.074;19.920;2024-01-10T03:50:48;125.67;;;38.20;;
19919;SDS011;10122;50.074;19.920;2024-01-10T03:53:14;114.30;;;36.17;;
19919;SDS011;10122;50.074;19.920;2024-01-10T03:55:39;113.20;;;37.30;;
19919;SDS011;10122;50.074;19.920;2024-01-10T03:58:05;116.20;;;36.03;;
19919;SDS011;10122;50.074;19.920;2024-01-10T04:00:31;112.00;;;34.90;;
19919;SDS011;10122;50.074;19.920;2024-01-10T04:02:57;105.73;;;33.80;;
19919;SDS011;10122;50.074;19.920;2024-01-10T04:05:23;98.17;;;32.97;;
19919;SDS011;10122;50.074;19.920;2024-01-10T04:07:50;94.37;;;32.53;;
19919;SDS011;10122;50.074;19.920;2024-01-10T04:10:16;103.17;;;34.00;;
19919;SDS011;10122;50.074;19.920;2024-01-10T04:12:43;95.23;;;32.00;;
19919;SDS011;10122;50.074;19.920;2024-01-10T04:15:09;101.20;;;33.73;;
19919;SDS011;10122;50.074;19.920;2024-01-10T04:17:35;99.90;;;31.57;;
19919;SDS011;10122;50.074;19.920;2024-01-10T04:20:01;107.07;;;34.10;;
19919;SDS011;10122;50.074;19.920;2024-01-10T04:22:28;104.53;;;35.17;;
19919;SDS011;10122;50.074;19.920;2024-01-10T04:24:55;107.27;;;34.40;;
19919;SDS011;10122;50.074;19.920;2024-01-10T04:27:24;107.97;;;34.30;;
19919;SDS011;10122;50.074;19.920;2024-01-10T04:29:51;105.80;;;34.53;;
19919;SDS011;10122;50.074;19.920;2024-01-10T04:32:16;105.53;;;34.10;;
19919;SDS011;10122;50.074;19.920;2024-01-10T04:34:42;112.57;;;34.77;;
19919;SDS011;10122;50.074;19.920;2024-01-10T04:37:08;100.37;;;34.50;;
19919;SDS011;10122;50.074;19.920;2024-01-10T04:39:34;115.00;;;35.97;;
19919;SDS011;10122;50.074;19.920;2024-01-10T04:42:00;104.30;;;34.23;;
19919;SDS011;10122;50.074;19.920;2024-01-10T04:44:26;110.10;;;34.83;;
19919;SDS011;10122;50.074;19.920;2024-01-10T04:46:52;107.53;;;33.60;;
19919;SDS011;10122;50.074;19.920;2024-01-10T04:49:18;107.80;;;33.80;;
19919;SDS011;10122;50.074;19.920;2024-01-10T04:51:43;109.53;;;34.00;;
19919;SDS011;10122;50.074;19.920;2024-01-10T04:54:10;100.00;;;33.63;;
19919;SDS011;10122;50.074;19.920;2024-01-10T04:56:36;102.40;;;34.30;;
19919;SDS011;10122;50.074;19.920;2024-01-10T04:59:02;115.30;;;36.43;;
19919;SDS011;10122;50.074;19.920;2024-01-10T05:01:28;109.73;;;33.77;;
19919;SDS011;10122;50.074;19.920;2024-01-10T05:03:54;114.37;;;37.80;;
19919;SDS011;10122;50.074;19.920;2024-01-10T05:06:20;129.53;;;43.20;;
19919;SDS011;10122;50.074;19.920;2024-01-10T05:08:45;126.70;;;39.33;;
19919;SDS011;10122;50.074;19.920;2024-01-10T05:11:11;106.27;;;37.10;;
19919;SDS011;10122;50.074;19.920;2024-01-10T05:13:38;111.10;;;38.30;;
19919;SDS011;10122;50.074;19.920;2024-01-10T05:16:04;114.13;;;37.83;;
19919;SDS011;10122;50.074;19.920;2024-01-10T05:18:30;122.73;;;38.73;;
19919;SDS011;10122;50.074;19.920;2024-01-10T05:20:56;123.53;;;41.03;;
19919;SDS011;10122;50.074;19.920;2024-01-10T05:23:22;129.87;;;40.63;;
19919;SDS011;10122;50.074;19.920;2024-01-10T05:25:48;143.77;;;39.73;;
19919;SDS011;10122;50.074;19.920;2024-01-10T05:28:14;122.07;;;39.03;;
19919;SDS011;10122;50.074;19.920;2024-01-10T05:30:40;108.87;;;38.23;;
19919;SDS011;10122;50.074;19.920;2024-01-10T05:33:07;128.47;;;40.80;;
19919;SDS011;10122;50.074;19.920;2024-01-10T05:35:33;115.27;;;40.00;;
19919;SDS011;10122;50.074;19.920;2024-01-10T05:38:00;124.37;;;39.83;;
19919;SDS011;10122;50.074;19.920;2024-01-10T05:40:30;121.27;;;39.73;;
19919;SDS011;10122;50.074;19.920;2024-01-10T05:42:56;125.63;;;40.37;;
19919;SDS011;10122;50.074;19.920;2024-01-10T05:45:24;129.43;;;39.27;;
19919;SDS011;10122;50.074;19.920;2024-01-10T05:47:50;127.80;;;39.47;;
19919;SDS011;10122;50.074;19.920;2024-01-10T05:50:16;132.43;;;40.00;;
19919;SDS011;10122;50.074;19.920;2024-01-10T05:52:42;121.37;;;40.53;;
19919;SDS011;10122;50.074;19.920;2024-01-10T05:55:08;115.87;;;39.33;;
19919;SDS011;10122;50.074;19.920;2024-01-10T05:57:35;120.03;;;39.67;;
19919;SDS011;10122;50.074;19.920;2024-01-10T06:00:01;129.70;;;40.40;;
19919;SDS011;10122;50.074;19.920;2024-01-10T06:02:28;114.73;;;39.60;;
19919;SDS011;10122;50.074;19.920;2024-01-10T06:04:54;109.70;;;37.37;;
19919;SDS011;10122;50.074;19.920;2024-01-10T06:07:19;125.47;;;38.17;;
19919;SDS011;10122;50.074;19.920;2024-01-10T06:09:48;123.20;;;38.67;;
19919;SDS011;10122;50.074;19.920;2024-01-10T06:12:13;114.17;;;36.90;;
19919;SDS011;10122;50.074;19.920;2024-01-10T06:14:39;124.10;;;36.70;;
19919;SDS011;10122;50.074;19.920;2024-01-10T06:17:06;102.17;;;35.63;;
19919;SDS011;10122;50.074;19.920;2024-01-10T06:19:31;108.77;;;37.53;;
19919;SDS011;10122;50.074;19.920;2024-01-10T06:21:57;111.73;;;35.43;;
19919;SDS011;10122;50.074;19.920;2024-01-10T06:24:24;119.63;;;37.43;;
19919;SDS011;10122;50.074;19.920;2024-01-10T06:26:50;119.80;;;37.47;;
19919;SDS011;10122;50.074;19.920;2024-01-10T06:29:16;129.10;;;40.00;;
19919;SDS011;10122;50.074;19.920;2024-01-10T06:31:42;117.63;;;38.30;;
19919;SDS011;10122;50.074;19.920;2024-01-10T06:34:08;125.73;;;37.23;;
19919;SDS011;10122;50.074;19.920;2024-01-10T06:36:34;129.40;;;40.23;;
19919;SDS011;10122;50.074;19.920;2024-01-10T06:39:00;117.40;;;39.60;;
19919;SDS011;10122;50.074;19.920;2024-01-10T06:41:26;121.87;;;39.70;;
19919;SDS011;10122;50.074;19.920;2024-01-10T06:43:52;135.03;;;40.73;;
19919;SDS011;10122;50.074;19.920;2024-01-10T06:46:18;119.13;;;38.70;;
19919;SDS011;10122;50.074;19.920;2024-01-10T06:48:44;132.23;;;41.03;;
19919;SDS011;10122;50.074;19.920;2024-01-10T06:51:11;103.43;;;37.20;;
19919;SDS011;10122;50.074;19.920;2024-01-10T06:53:37;113.00;;;39.90;;
19919;SDS011;10122;50.074;19.920;2024-01-10T06:56:03;112.90;;;35.97;;
19919;SDS011;10122;50.074;19.920;2024-01-10T06:58:30;109.03;;;36.17;;
19919;SDS011;10122;50.074;19.920;2024-01-10T07:00:56;101.43;;;35.23;;
19919;SDS011;10122;50.074;19.920;2024-01-10T07:03:22;122.50;;;38.00;;
19919;SDS011;10122;50.074;19.920;2024-01-10T07:05:47;121.07;;;37.87;;
19919;SDS011;10122;50.074;19.920;2024-01-10T07:08:14;96.60;;;33.80;;
19919;SDS011;10122;50.074;19.920;2024-01-10T07:10:39;117.27;;;38.13;;
19919;SDS011;10122;50.074;19.920;2024-01-10T07:13:05;114.67;;;38.60;;
19919;SDS011;10122;50.074;19.920;2024-01-10T07:15:31;117.80;;;38.33;;
19919;SDS011;10122;50.074;19.920;2024-01-10T07:17:57;130.73;;;40.27;;
19919;SDS011;10122;50.074;19.920;2024-01-10T07:20:23;141.87;;;42.63;;
19919;SDS011;10122;50.074;19.920;2024-01-10T07:22:49;144.30;;;43.50;;
19919;SDS011;10122;50.074;19.920;2024-01-10T07:25:16;136.20;;;43.20;;
19919;SDS011;10122;50.074;19.920;2024-01-10T07:27:42;136.43;;;44.90;;
19919;SDS011;10122;50.074;19.920;2024-01-10T07:30:08;150.00;;;44.17;;
19919;SDS011;10122;50.074;19.920;2024-01-10T07:32:41;137.83;;;43.27;;
19919;SDS011;10122;50.074;19.920;2024-01-10T07:35:07;138.17;;;42.27;;
19919;SDS011;10122;50.074;19.920;2024-01-10T07:37:37;133.23;;;41.77;;
19919;SDS011;10122;50.074;19.920;2024-01-10T07:40:03;132.00;;;41.53;;
19919;SDS011;10122;50.074;19.920;2024-01-10T07:42:31;129.27;;;40.57;;
19919;SDS011;10122;50.074;19.920;2024-01-10T07:44:57;137.33;;;41.47;;
19919;SDS011;10122;50.074;19.920;2024-01-10T07:47:23;124.70;;;40.87;;
19919;SDS011;10122;50.074;19.920;2024-01-10T07:49:49;141.77;;;42.33;;
19919;SDS011;10122;50.074;19.920;2024-01-10T07:52:14;146.90;;;44.67;;
19919;SDS011;10122;50.074;19.920;2024-01-10T07:54:41;124.77;;;41.53;;
19919;SDS011;10122;50.074;19.920;2024-01-10T07:57:07;144.87;;;43.07;;
19919;SDS011;10122;50.074;19.920;2024-01-10T07:59:33;122.97;;;39.37;;
19919;SDS011;10122;50.074;19.920;2024-01-10T08:01:59;145.10;;;44.43;;
19919;SDS011;10122;50.074;19.920;2024-01-10T08:04:28;139.97;;;44.07;;
19919;SDS011;10122;50.074;19.920;2024-01-10T08:06:54;117.33;;;41.83;;
19919;SDS011;10122;50.074;19.920;2024-01-10T08:09:20;148.10;;;44.53;;
19919;SDS011;10122;50.074;19.920;2024-01-10T08:11:47;148.17;;;44.67;;
19919;SDS011;10122;50.074;19.920;2024-01-10T08:14:15;159.53;;;47.73;;
19919;SDS011;10122;50.074;19.920;2024-01-10T08:16:41;153.50;;;45.13;;
19919;SDS011;10122;50.074;19.920;2024-01-10T08:19:07;145.17;;;45.93;;
19919;SDS011;10122;50.074;19.920;2024-01-10T08:21:33;183.87;;;52.80;;
19919;SDS011;10122;50.074;19.920;2024-01-10T08:23:59;159.80;;;52.50;;
19919;SDS011;10122;50.074;19.920;2024-01-10T08:26:26;167.83;;;54.30;;
19919;SDS011;10122;50.074;19.920;2024-01-10T08:28:52;172.13;;;52.97;;
19919;SDS011;10122;50.074;19.920;2024-01-10T08:31:18;167.07;;;53.27;;
19919;SDS011;10122;50.074;19.920;2024-01-10T08:33:44;149.60;;;50.43;;
19919;SDS011;10122;50.074;19.920;2024-01-10T08:36:12;164.57;;;50.87;;
19919;SDS011;10122;50.074;19.920;2024-01-10T08:38:39;141.87;;;44.93;;
19919;SDS011;10122;50.074;19.920;2024-01-10T08:41:07;125.43;;;42.03;;
19919;SDS011;10122;50.074;19.920;2024-01-10T08:43:36;151.50;;;51.40;;
19919;SDS011;10122;50.074;19.920;2024-01-10T08:46:03;146.30;;;46.93;;
19919;SDS011;10122;50.074;19.920;2024-01-10T08:48:29;127.97;;;44.97;;
19919;SDS011;10122;50.074;19.920;2024-01-10T08:50:54;104.10;;;37.90;;
19919;SDS011;10122;50.074;19.920;2024-01-10T08:53:21;58.37;;;26.93;;
19919;SDS011;10122;50.074;19.920;2024-01-10T08:55:47;41.60;;;19.27;;
19919;SDS011;10122;50.074;19.920;2024-01-10T08:58:13;64.87;;;27.60;;
19919;SDS011;10122;50.074;19.920;2024-01-10T09:00:39;64.73;;;28.40;;
19919;SDS011;10122;50.074;19.920;2024-01-10T09:03:05;100.73;;;38.23;;
19919;SDS011;10122;50.074;19.920;2024-01-10T09:05:30;102.47;;;35.93;;
19919;SDS011;10122;50.074;19.920;2024-01-10T09:07:57;22.63;;;16.53;;
19919;SDS011;10122;50.074;19.920;2024-01-10T09:10:23;84.50;;;34.07;;
19919;SDS011;10122;50.074;19.920;2024-01-10T09:12:52;124.13;;;41.43;;
19919;SDS011;10122;50.074;19.920;2024-01-10T09:15:18;31.30;;;20.37;;
19919;SDS011;10122;50.074;19.920;2024-01-10T09:17:44;68.27;;;35.70;;
19919;SDS011;10122;50.074;19.920;2024-01-10T09:20:10;94.03;;;35.93;;
19919;SDS011;10122;50.074;19.920;2024-01-10T09:22:37;118.97;;;45.17;;
19919;SDS011;10122;50.074;19.920;2024-01-10T09:25:06;125.20;;;45.07;;
19919;SDS011;10122;50.074;19.920;2024-01-10T09:27:33;128.57;;;42.27;;
19919;SDS011;10122;50.074;19.920;2024-01-10T09:30:00;122.83;;;44.37;;
19919;SDS011;10122;50.074;19.920;2024-01-10T09:32:33;156.17;;;51.63;;
19919;SDS011;10122;50.074;19.920;2024-01-10T09:35:00;163.20;;;50.87;;
19919;SDS011;10122;50.074;19.920;2024-01-10T09:37:25;166.27;;;51.27;;
19919;SDS011;10122;50.074;19.920;2024-01-10T09:39:51;143.83;;;45.03;;
19919;SDS011;10122;50.074;19.920;2024-01-10T09:42:18;138.07;;;48.73;;
19919;SDS011;10122;50.074;19.920;2024-01-10T09:44:46;144.43;;;48.23;;
19919;SDS011;10122;50.074;19.920;2024-01-10T09:47:13;128.57;;;46.23;;
19919;SDS011;10122;50.074;19.920;2024-01-10T09:49:40;101.47;;;39.00;;
19919;SDS011;10122;50.074;19.920;2024-01-10T09:52:06;118.67;;;45.23;;
19919;SDS011;10122;50.074;19.920;2024-01-10T09:54:35;75.17;;;32.23;;
19919;SDS011;10122;50.074;19.920;2024-01-10T09:57:05;111.57;;;40.57;;
19919;SDS011;10122;50.074;19.920;2024-01-10T09:59:31;90.20;;;35.87;;
19919;SDS011;10122;50.074;19.920;2024-01-10T10:01:57;157.27;;;50.40;;
19919;SDS011;10122;50.074;19.920;2024-01-10T10:04:27;145.33;;;49.53;;
19919;SDS011;10122;50.074;19.920;2024-01-10T10:07:00;69.97;;;34.23;;
19919;SDS011;10122;50.074;19.920;2024-01-10T10:09:26;115.73;;;39.60;;
19919;SDS011;10122;50.074;19.920;2024-01-10T10:11:54;101.07;;;39.47;;
19919;SDS011;10122;50.074;19.920;2024-01-10T10:14:20;88.40;;;35.77;;
19919;SDS011;10122;50.074;19.920;2024-01-10T10:16:47;101.03;;;40.43;;
19919;SDS011;10122;50.074;19.920;2024-01-10T10:19:13;103.67;;;39.63;;
19919;SDS011;10122;50.074;19.920;2024-01-10T10:21:47;90.63;;;34.90;;
19919;SDS011;10122;50.074;19.920;2024-01-10T10:24:13;103.77;;;37.47;;
19919;SDS011;10122;50.074;19.920;2024-01-10T10:26:38;111.43;;;38.97;;
19919;SDS011;10122;50.074;19.920;2024-01-10T10:29:06;105.53;;;37.03;;
19919;SDS011;10122;50.074;19.920;2024-01-10T10:31:31;115.27;;;40.97;;
19919;SDS011;10122;50.074;19.920;2024-01-10T10:33:58;105.07;;;38.53;;
19919;SDS011;10122;50.074;19.920;2024-01-10T10:36:32;119.87;;;41.03;;
19919;SDS011;10122;50.074;19.920;2024-01-10T10:38:59;101.97;;;37.87;;
19919;SDS011;10122;50.074;19.920;2024-01-10T10:41:29;123.53;;;44.70;;
19919;SDS011;10122;50.074;19.920;2024-01-10T10:43:56;131.63;;;43.60;;
19919;SDS011;10122;50.074;19.920;2024-01-10T10:46:23;119.67;;;42.03;;
19919;SDS011;10122;50.074;19.920;2024-01-10T10:48:52;102.07;;;38.53;;
19919;SDS011;10122;50.074;19.920;2024-01-10T10:51:22;111.83;;;43.83;;
19919;SDS011;10122;50.074;19.920;2024-01-10T10:53:53;115.30;;;40.87;;
19919;SDS011;10122;50.074;19.920;2024-01-10T10:56:21;114.07;;;40.83;;
19919;SDS011;10122;50.074;19.920;2024-01-10T10:58:48;100.17;;;39.10;;
19919;SDS011;10122;50.074;19.920;2024-01-10T11:01:15;96.17;;;39.40;;
19919;SDS011;10122;50.074;19.920;2024-01-10T11:03:42;129.63;;;45.50;;
19919;SDS011;10122;50.074;19.920;2024-01-10T11:06:09;119.17;;;43.30;;
19919;SDS011;10122;50.074;19.920;2024-01-10T11:08:40;123.60;;;43.57;;
19919;SDS011;10122;50.074;19.920;2024-01-10T11:17:34;128.90;;;44.03;;
19919;SDS011;10122;50.074;19.920;2024-01-10T11:25:39;103.57;;;40.20;;
19919;SDS011;10122;50.074;19.920;2024-01-10T11:28:05;127.07;;;43.57;;
19919;SDS011;10122;50.074;19.920;2024-01-10T11:30:35;128.53;;;44.73;;
19919;SDS011;10122;50.074;19.920;2024-01-10T11:33:24;134.57;;;46.53;;
19919;SDS011;10122;50.074;19.920;2024-01-10T11:46:43;137.53;;;48.07;;
19919;SDS011;10122;50.074;19.920;2024-01-10T11:49:15;140.60;;;46.27;;
19919;SDS011;10122;50.074;19.920;2024-01-10T11:51:42;119.00;;;41.83;;
19919;SDS011;10122;50.074;19.920;2024-01-10T11:57:01;138.83;;;44.90;;
19919;SDS011;10122;50.074;19.920;2024-01-10T11:59:26;121.90;;;42.20;;
19919;SDS011;10122;50.074;19.920;2024-01-10T12:01:52;114.73;;;41.53;;
19919;SDS011;10122;50.074;19.920;2024-01-10T12:04:19;141.20;;;47.00;;
19919;SDS011;10122;50.074;19.920;2024-01-10T12:06:46;143.90;;;48.67;;
19919;SDS011;10122;50.074;19.920;2024-01-10T12:09:12;135.90;;;46.60;;
19919;SDS011;10122;50.074;19.920;2024-01-10T12:11:41;139.40;;;46.83;;
19919;SDS011;10122;50.074;19.920;2024-01-10T12:14:08;127.63;;;44.07;;
19919;SDS011;10122;50.074;19.920;2024-01-10T12:16:34;146.57;;;49.30;;
19919;SDS011;10122;50.074;19.920;2024-01-10T12:19:06;134.00;;;47.70;;
19919;SDS011;10122;50.074;19.920;2024-01-10T12:21:32;132.17;;;46.73;;
19919;SDS011;10122;50.074;19.920;2024-01-10T12:23:57;138.97;;;46.50;;
19919;SDS011;10122;50.074;19.920;2024-01-10T12:26:23;119.93;;;40.47;;
19919;SDS011;10122;50.074;19.920;2024-01-10T12:28:58;123.43;;;44.07;;
19919;SDS011;10122;50.074;19.920;2024-01-10T12:31:28;148.10;;;47.33;;
19919;SDS011;10122;50.074;19.920;2024-01-10T12:34:00;129.30;;;46.07;;
19919;SDS011;10122;50.074;19.920;2024-01-10T12:36:26;115.20;;;42.33;;
19919;SDS011;10122;50.074;19.920;2024-01-10T12:38:52;128.87;;;44.67;;
19919;SDS011;10122;50.074;19.920;2024-01-10T12:41:18;119.13;;;44.60;;
19919;SDS011;10122;50.074;19.920;2024-01-10T12:43:52;121.65;;;42.25;;
19919;SDS011;10122;50.074;19.920;2024-01-10T12:46:18;115.00;;;41.55;;
19919;SDS011;10122;50.074;19.920;2024-01-10T12:48:43;125.47;;;43.28;;
19919;SDS011;10122;50.074;19.920;2024-01-10T12:51:10;128.93;;;44.77;;
19919;SDS011;10122;50.074;19.920;2024-01-10T12:53:40;110.85;;;40.45;;
19919;SDS011;10122;50.074;19.920;2024-01-10T12:56:08;137.43;;;46.00;;
19919;SDS011;10122;50.074;19.920;2024-01-10T12:58:39;136.05;;;45.63;;
19919;SDS011;10122;50.074;19.920;2024-01-10T13:01:08;153.98;;;52.90;;
19919;SDS011;10122;50.074;19.920;2024-01-10T13:03:34;132.90;;;45.08;;
19919;SDS011;10122;50.074;19.920;2024-01-10T13:06:00;132.98;;;46.05;;
19919;SDS011;10122;50.074;19.920;2024-01-10T13:08:26;120.75;;;44.22;;
19919;SDS011;10122;50.074;19.920;2024-01-10T13:10:52;148.98;;;44.33;;
19919;SDS011;10122;50.074;19.920;2024-01-10T13:13:18;121.32;;;44.42;;
19919;SDS011;10122;50.074;19.920;2024-01-10T13:15:46;139.02;;;45.75;;
19919;SDS011;10122;50.074;19.920;2024-01-10T13:18:12;130.45;;;43.25;;
19919;SDS011;10122;50.074;19.920;2024-01-10T13:20:40;131.02;;;43.08;;
19919;SDS011;10122;50.074;19.920;2024-01-10T13:23:06;107.95;;;40.80;;
19919;SDS011;10122;50.074;19.920;2024-01-10T13:25:32;115.55;;;39.88;;
19919;SDS011;10122;50.074;19.920;2024-01-10T13:27:59;120.65;;;43.67;;
19919;SDS011;10122;50.074;19.920;2024-01-10T13:30:25;120.18;;;41.38;;
19919;SDS011;10122;50.074;19.920;2024-01-10T13:32:52;126.07;;;43.70;;
19919;SDS011;10122;50.074;19.920;2024-01-10T13:35:18;124.35;;;43.22;;
19919;SDS011;10122;50.074;19.920;2024-01-10T13:37:44;131.38;;;43.85;;
19919;SDS011;10122;50.074;19.920;2024-01-10T13:40:11;125.00;;;43.90;;
19919;SDS011;10122;50.074;19.920;2024-01-10T13:42:40;124.43;;;43.25;;
19919;SDS011;10122;50.074;19.920;2024-01-10T13:45:09;113.70;;;42.28;;
19919;SDS011;10122;50.074;19.920;2024-01-10T13:47:38;112.28;;;42.33;;
19919;SDS011;10122;50.074;19.920;2024-01-10T13:50:05;125.75;;;42.85;;
19919;SDS011;10122;50.074;19.920;2024-01-10T13:52:32;127.33;;;43.80;;
19919;SDS011;10122;50.074;19.920;2024-01-10T13:54:58;104.30;;;38.67;;
19919;SDS011;10122;50.074;19.920;2024-01-10T13:57:25;124.57;;;43.67;;
19919;SDS011;10122;50.074;19.920;2024-01-10T13:59:51;138.35;;;44.45;;
19919;SDS011;10122;50.074;19.920;2024-01-10T14:02:20;130.63;;;45.10;;
19919;SDS011;10122;50.074;19.920;2024-01-10T14:04:48;122.57;;;43.03;;
19919;SDS011;10122;50.074;19.920;2024-01-10T14:07:14;153.20;;;46.70;;
19919;SDS011;10122;50.074;19.920;2024-01-10T14:09:40;133.77;;;46.28;;
19919;SDS011;10122;50.074;19.920;2024-01-10T14:12:06;124.10;;;45.33;;
19919;SDS011;10122;50.074;19.920;2024-01-10T14:14:31;127.50;;;44.80;;
19919;SDS011;10122;50.074;19.920;2024-01-10T14:16:57;113.97;;;43.23;;
19919;SDS011;10122;50.074;19.920;2024-01-10T14:19:23;133.47;;;42.43;;
19919;SDS011;10122;50.074;19.920;2024-01-10T14:21:49;106.07;;;40.33;;